Time;durP1;ratioP1;P1;durP2;ratioP2;P2;SDS_P1;SDS_P2;PMS_P1;PMS_P2;Temp;Humidity;BMP_temperature;BMP_pressure;BME280_temperature;BME280_humidity;BME280_pressure;Samples;Min_cycle;Max_cycle;Signal;HPM_P1;HPM_P2
2022/05/03 00:01:52;;;;;;;59.15;37.55;;;;;;;7.24;67.21;98907.02;4036332;86;21052;-83
2022/05/03 00:08:06;;;;;;;;;;;;;;;7.09;67.02;98910.57;4042424;86;21087;-84
2022/05/03 00:14:24;;;;;;;47.23;29.35;;;;;;;7.12;70.03;98898.98;4040845;86;20157;-84
2022/05/03 00:20:27;;;;;;;43.13;29.45;;;;;;;7.21;68.62;98897.64;4038590;86;21056;-84
2022/05/03 00:26:29;;;;;;;54.25;35.17;;;;;;;7.24;68.70;98906.46;4039012;86;21662;-83
2022/05/03 00:32:31;;;;;;;45.63;29.10;;;;;;;7.07;68.35;98897.32;4031902;86;20976;-83
2022/05/03 00:38:34;;;;;;;46.90;29.63;;;;;;;6.86;68.97;98894.08;4040951;86;21079;-84
2022/05/03 00:45:06;;;;;;;39.53;25.55;;;;;;;6.90;69.39;98888.73;4042531;86;21060;-83
2022/05/03 00:51:35;;;;;;;46.23;28.60;;;;;;;6.95;69.81;98889.27;4045514;85;21060;-83
2022/05/03 00:57:54;;;;;;;46.85;30.30;;;;;;;6.88;69.93;98878.77;4158518;84;21046;-84
2022/05/03 01:04:30;;;;;;;45.17;28.55;;;;;;;6.66;70.03;98877.47;4153346;84;21578;-84
2022/05/03 01:10:36;;;;;;;48.87;30.90;;;;;;;6.69;70.54;98880.84;4058948;86;21612;-83
2022/05/03 01:17:06;;;;;;;46.08;29.85;;;;;;;6.53;70.33;98878.69;4058102;86;21122;-84
2022/05/03 01:23:35;;;;;;;43.98;27.90;;;;;;;6.29;70.60;98876.15;4004266;87;21068;-83
2022/05/03 01:29:37;;;;;;;47.65;29.65;;;;;;;6.21;71.77;98884.70;4091101;86;21540;-85
2022/05/03 01:35:39;;;;;;;57.33;33.67;;;;;;;6.16;71.52;98896.37;4087789;86;22295;-84
2022/05/03 01:41:51;;;;;;;51.10;31.48;;;;;;;6.06;71.50;98898.26;4088154;86;21043;-84
2022/05/03 01:48:07;;;;;;;47.53;27.22;;;;;;;5.96;72.14;98897.39;4094308;86;21563;-84
2022/05/03 01:54:33;;;;;;;53.45;32.28;;;;;;;6.14;73.00;98903.52;4059161;86;21075;-84
2022/05/03 02:00:35;;;;;;;63.23;37.77;;;;;;;6.22;72.42;98907.21;4056868;85;21347;-84
2022/05/03 02:06:48;;;;;;;50.38;28.87;;;;;;;6.01;72.11;98903.94;4055083;85;21059;-84
2022/05/03 02:12:56;;;;;;;53.25;29.60;;;;;;;6.02;71.68;98900.07;4058672;86;21031;-83
2022/05/03 02:19:18;;;;;;;57.65;34.30;;;;;;;5.99;73.22;98904.84;4067612;86;21076;-83
2022/05/03 02:25:51;;;;;;;50.60;30.75;;;;;;;6.08;73.40;98899.48;4071481;86;21079;-83
2022/05/03 02:32:13;;;;;;;48.23;27.62;;;;;;;6.07;74.19;98888.40;4057328;86;21066;-83
2022/05/03 02:38:21;;;;;;;45.63;27.85;;;;;;;6.27;74.41;98888.73;3960947;87;21087;-83
2022/05/03 02:44:23;;;;;;;39.42;25.02;;;;;;;6.12;73.43;98882.69;4024257;87;21022;-83
2022/05/03 02:50:30;;;;;;;45.20;29.87;;;;;;;6.09;74.50;98875.82;4160961;84;21059;-83
2022/05/03 02:56:48;;;;;;;44.67;27.05;;;;;;;6.08;73.23;98875.02;4142788;84;21065;-84
2022/05/03 03:03:40;;;;;;;45.50;27.05;;;;;;;5.99;75.04;98878.47;4147073;85;21023;-84
2022/05/03 03:09:58;;;;;;;38.65;24.55;;;;;;;6.12;74.87;98874.53;4140897;85;21022;-84
2022/05/03 03:16:00;;;;;;;37.13;23.57;;;;;;;6.12;75.49;98873.17;4143881;84;21046;-84
2022/05/03 03:22:04;;;;;;;36.42;22.75;;;;;;;6.31;75.70;98884.75;4138347;84;21035;-82
2022/05/03 03:28:12;;;;;;;41.40;25.20;;;;;;;6.47;75.80;98886.13;4154225;84;21062;-84
2022/05/03 03:34:14;;;;;;;36.65;24.45;;;;;;;6.35;75.56;98879.63;4030566;86;21139;-84
2022/05/03 03:40:18;;;;;;;40.75;26.40;;;;;;;6.25;76.79;98883.41;4032168;86;21091;-83
2022/05/03 03:46:19;;;;;;;40.05;24.90;;;;;;;6.37;76.70;98894.23;4032504;86;21131;-83
2022/05/03 03:52:21;;;;;;;43.87;26.07;;;;;;;6.58;77.11;98898.83;4034693;86;21526;-83
2022/05/03 03:58:23;;;;;;;38.42;24.60;;;;;;;6.67;76.42;98895.95;4118070;85;21086;-84
2022/05/03 04:04:35;;;;;;;38.55;24.07;;;;;;;6.93;77.18;98891.55;4140851;85;21019;-84
2022/05/03 04:10:36;;;;;;;39.85;27.05;;;;;;;7.05;78.25;98875.09;4135704;85;21661;-84
2022/05/03 04:16:38;;;;;;;39.30;24.77;;;;;;;7.11;77.33;98886.52;4111331;85;21054;-84
2022/05/03 04:22:40;;;;;;;37.88;22.82;;;;;;;7.18;77.56;98892.91;4103096;85;21046;-83
2022/05/03 04:28:41;;;;;;;39.00;26.35;;;;;;;7.35;79.20;98898.52;4109639;85;21062;-84
2022/05/03 04:34:43;;;;;;;38.75;24.85;;;;;;;7.47;79.87;98897.83;4060901;86;21057;-84
2022/05/03 04:40:44;;;;;;;33.20;23.67;;;;;;;7.66;82.79;98895.69;4076411;86;21081;-85
2022/05/03 04:46:45;;;;;;;34.13;24.15;;;;;;;7.74;80.77;98906.39;4133540;85;21031;-84
2022/05/03 04:52:47;;;;;;;34.25;23.62;;;;;;;7.87;82.26;98907.03;4134856;85;21052;-84
2022/05/03 04:58:50;;;;;;;33.00;23.15;;;;;;;7.96;80.96;98921.23;4145666;85;21122;-84
2022/05/03 05:04:51;;;;;;;29.23;20.40;;;;;;;8.25;80.58;98924.77;4135409;85;21015;-84
2022/05/03 05:10:53;;;;;;;33.42;21.50;;;;;;;8.63;80.50;98916.48;4057507;86;21012;-84
2022/05/03 05:16:55;;;;;;;35.73;21.37;;;;;;;8.98;80.30;98912.20;4053468;86;21142;-84
2022/05/03 05:22:56;;;;;;;27.27;18.95;;;;;;;9.21;79.87;98890.52;4050748;86;21087;-84
2022/05/03 05:28:58;;;;;;;25.23;17.77;;;;;;;9.56;79.45;98892.97;4040424;87;21087;-85
2022/05/03 05:34:59;;;;;;;25.30;17.35;;;;;;;9.94;79.08;98889.15;4031123;87;21094;-84
2022/05/03 05:41:11;;;;;;;28.23;17.87;;;;;;;10.09;79.13;98906.74;4050628;86;21074;-85
2022/05/03 05:47:13;;;;;;;29.80;21.73;;;;;;;10.11;79.00;98896.22;4030540;87;21047;-85
2022/05/03 05:53:32;;;;;;;28.32;18.60;;;;;;;10.31;79.30;98894.08;4024527;86;21071;-84
2022/05/03 05:59:34;;;;;;;24.70;17.62;;;;;;;10.84;78.95;98903.00;4023240;87;21131;-84
2022/05/03 06:05:37;;;;;;;24.55;15.95;;;;;;;11.32;78.34;98910.63;4005493;87;21535;-84
2022/05/03 06:11:39;;;;;;;20.95;15.35;;;;;;;11.57;77.92;98918.41;4000532;87;21670;-83
2022/05/03 06:17:41;;;;;;;24.72;15.88;;;;;;;11.77;77.75;98913.45;4050136;86;21051;-84
2022/05/03 06:23:42;;;;;;;22.35;14.80;;;;;;;12.38;77.22;98915.45;4054237;86;21016;-85
2022/05/03 06:29:44;;;;;;;21.40;14.53;;;;;;;12.85;76.36;98915.72;4042040;86;21051;-85
2022/05/03 06:35:45;;;;;;;21.15;14.63;;;;;;;13.38;75.18;98922.02;4037961;86;21039;-85
2022/05/03 06:41:46;;;;;;;20.72;14.18;;;;;;;13.63;74.81;98918.63;4042285;86;21959;-85
2022/05/03 06:47:48;;;;;;;21.87;15.08;;;;;;;13.83;74.07;98914.83;4050683;85;21495;-85
2022/05/03 06:53:50;;;;;;;19.65;13.55;;;;;;;13.88;72.01;98914.42;4029134;86;21040;-85
2022/05/03 06:59:51;;;;;;;20.15;13.45;;;;;;;13.96;72.22;98904.38;4018111;87;21023;-86
2022/05/03 07:05:52;;;;;;;14.58;11.33;;;;;;;14.34;72.03;98901.88;4015514;86;21032;-85
2022/05/03 07:11:54;;;;;;;18.30;12.18;;;;;;;14.77;71.36;98908.09;4019380;87;21102;-85
2022/05/03 07:24:16;;;;;;;14.47;11.48;;;;;;;15.62;69.55;98891.02;4047102;86;21036;-85
2022/05/03 07:30:18;;;;;;;13.88;10.58;;;;;;;16.07;68.83;98887.52;4048811;86;21526;-85
2022/05/03 07:36:20;;;;;;;15.18;10.32;;;;;;;16.49;67.86;98902.18;4023175;86;21146;-84
2022/05/03 07:42:21;;;;;;;16.55;11.80;;;;;;;16.98;67.37;98906.19;4014928;86;21099;-85
2022/05/03 07:48:22;;;;;;;18.73;10.60;;;;;;;17.49;59.81;98907.73;4033118;86;21560;-85
2022/05/03 07:54:26;;;;;;;13.68;8.13;;;;;;;18.02;63.34;98911.06;4022702;86;21087;-85
2022/05/03 08:00:27;;;;;;;11.57;8.85;;;;;;;18.74;62.38;98920.98;4014332;86;21004;-86
2022/05/03 08:06:29;;;;;;;15.38;10.48;;;;;;;18.97;61.84;98924.83;4027032;86;21111;-86
2022/05/03 08:12:32;;;;;;;13.98;11.10;;;;;;;18.98;61.00;98922.25;4010565;86;21635;-85
2022/05/03 08:18:34;;;;;;;13.93;10.93;;;;;;;18.94;57.75;98934.02;4024168;86;21023;-86
2022/05/03 08:24:36;;;;;;;14.20;9.90;;;;;;;19.18;59.45;98921.56;4032056;86;21015;-87
2022/05/03 08:30:40;;;;;;;14.05;10.15;;;;;;;19.29;58.87;98931.22;4034566;86;21454;-86
2022/05/03 08:42:01;;;;;;;13.90;10.58;;;;;;;19.61;57.81;98934.55;4034103;87;21082;-86
2022/05/03 08:42:47;;;;;;;11.85;9.68;;;;;;;19.84;56.68;98928.16;4039159;87;21157;-86
2022/05/03 08:48:54;;;;;;;16.85;11.45;;;;;;;19.98;55.43;98933.97;4030818;87;21035;-87
2022/05/03 08:55:00;;;;;;;18.55;12.50;;;;;;;20.16;55.24;98930.09;4035130;87;22014;-85
2022/05/03 09:01:03;;;;;;;17.10;12.88;;;;;;;19.86;51.49;98924.35;3989391;87;21043;-86
2022/05/03 09:07:25;;;;;;;16.20;11.90;;;;;;;20.18;52.47;98928.45;4012528;87;21110;-87
2022/05/03 09:13:28;;;;;;;18.55;11.97;;;;;;;20.81;52.42;98922.99;4050914;86;22232;-85
2022/05/03 09:19:29;;;;;;;12.63;10.43;;;;;;;21.28;49.98;98921.07;4018369;86;21075;-86
2022/05/03 09:25:33;;;;;;;13.35;10.45;;;;;;;22.00;50.41;98918.23;4057652;86;21059;-86
2022/05/03 09:31:46;;;;;;;11.78;9.18;;;;;;;22.71;45.78;98918.53;4041344;86;21869;-87
2022/05/03 09:37:48;;;;;;;12.65;9.45;;;;;;;23.15;46.38;98913.58;4052414;85;20971;-87
2022/05/03 09:44:07;;;;;;;11.20;7.50;;;;;;;24.31;45.89;98907.19;4085575;86;21117;-87
2022/05/03 09:50:08;;;;;;;11.90;8.05;;;;;;;24.50;43.78;98894.10;4085106;86;21089;-87
2022/05/03 09:56:11;;;;;;;6.65;5.95;;;;;;;25.14;42.89;98882.03;4050973;86;21020;-87
2022/05/03 10:02:15;;;;;;;8.50;6.30;;;;;;;25.65;42.07;98884.69;4080384;86;21053;-87
2022/05/03 10:08:19;;;;;;;7.33;5.45;;;;;;;25.54;39.41;98883.06;4086159;86;21039;-87
2022/05/03 10:14:21;;;;;;;7.53;5.33;;;;;;;25.21;36.21;98871.89;4132692;85;21029;-87
2022/05/03 10:20:43;;;;;;;6.03;4.53;;;;;;;25.86;36.00;98868.94;4125534;85;21086;-87
2022/05/03 10:27:07;;;;;;;7.05;4.47;;;;;;;26.75;36.30;98871.32;4130134;85;21098;-87
2022/05/03 10:33:29;;;;;;;7.42;5.28;;;;;;;26.28;35.20;98857.48;4134888;85;21459;-86
2022/05/03 10:39:31;;;;;;;6.03;5.15;;;;;;;25.57;35.94;98863.89;4114050;85;21556;-85
2022/05/03 10:45:55;;;;;;;9.35;7.00;;;;;;;24.86;35.74;98868.02;4113470;85;21128;-87
2022/05/03 10:51:56;;;;;;;13.85;8.13;;;;;;;23.47;35.23;98880.17;4135312;85;21079;-85
2022/05/03 10:58:29;;;;;;;10.50;8.10;;;;;;;22.09;36.95;98895.20;4135915;84;22343;-86
2022/05/03 11:04:30;;;;;;;11.85;9.18;;;;;;;19.72;42.12;98877.52;4091385;86;21757;-86
2022/05/03 11:10:41;;;;;;;9.63;8.45;;;;;;;18.98;43.57;98874.47;4067549;86;21056;-86
2022/05/03 11:16:47;;;;;;;7.95;6.47;;;;;;;19.78;45.32;98868.06;4064415;86;21024;-87
2022/05/03 11:22:49;;;;;;;8.08;6.92;;;;;;;20.68;43.76;98861.01;4065761;86;21118;-86
2022/05/03 11:28:52;;;;;;;7.78;6.65;;;;;;;21.95;43.55;98849.73;4064576;86;21067;-86
2022/05/03 11:35:03;;;;;;;10.23;7.28;;;;;;;22.24;41.34;98840.48;4069938;86;21042;-86
2022/05/03 11:41:07;;;;;;;11.73;8.00;;;;;;;22.71;40.88;98833.43;4052039;86;21074;-86
2022/05/03 11:47:10;;;;;;;9.95;7.70;;;;;;;23.30;39.25;98832.83;4065908;86;21161;-86
2022/05/03 11:59:36;;;;;;;9.75;7.72;;;;;;;24.07;38.65;98825.97;4086875;86;21501;-86
2022/05/03 12:05:39;;;;;;;11.80;8.15;;;;;;;24.16;38.39;98824.58;4062821;86;21623;-87
2022/05/03 12:12:42;;;;;;;12.28;8.50;;;;;;;24.18;36.92;98823.46;4058220;86;21580;-87
2022/05/03 12:17:57;;;;;;;13.48;7.92;;;;;;;23.38;37.98;98813.91;4083872;86;21049;-86
2022/05/03 12:24:03;;;;;;;11.08;8.53;;;;;;;22.63;37.83;98811.23;4051076;86;21039;-86
2022/05/03 12:30:11;;;;;;;12.63;8.23;;;;;;;22.96;37.28;98801.70;4049056;86;21074;-86
2022/05/03 12:36:35;;;;;;;10.93;9.38;;;;;;;22.96;37.28;98801.70;4062852;86;20999;-87
2022/05/03 12:42:42;;;;;;;12.40;8.38;;;;;;;22.21;35.83;98803.73;4055661;86;21063;-85
2022/05/03 12:48:43;;;;;;;11.78;7.92;;;;;;;21.43;36.64;98803.83;4054903;86;21990;-87
2022/05/03 12:54:48;;;;;;;12.10;8.45;;;;;;;21.03;37.18;98806.24;4059093;85;21127;-86
2022/05/03 13:00:57;;;;;;;11.38;8.25;;;;;;;21.44;37.10;98797.02;4026160;86;21107;-86
2022/05/03 13:06:59;;;;;;;11.10;7.92;;;;;;;22.00;37.10;98787.23;4002698;87;21073;-86
2022/05/03 13:13:03;;;;;;;9.48;7.53;;;;;;;22.49;36.52;98790.09;4053410;85;21075;-86
2022/05/03 13:19:05;;;;;;;14.73;9.08;;;;;;;22.90;37.13;98784.02;4054218;86;21079;-86
2022/05/03 13:25:07;;;;;;;12.88;8.95;;;;;;;22.63;36.97;98781.19;4056812;86;21027;-86
2022/05/03 13:31:09;;;;;;;11.75;7.95;;;;;;;22.01;36.86;98776.23;4081287;86;22127;-86
2022/05/03 13:43:30;;;;;;;9.75;7.83;;;;;;;21.60;37.26;98764.80;3971464;88;21087;-86
2022/05/03 13:49:32;;;;;;;13.22;8.48;;;;;;;21.83;38.97;98763.61;4019767;86;21071;-86
2022/05/03 13:55:33;;;;;;;10.20;7.80;;;;;;;22.03;38.65;98757.05;4028189;86;21099;-86
2022/05/03 14:01:37;;;;;;;11.00;7.58;;;;;;;21.73;38.09;98764.13;4065284;86;22402;-86
2022/05/03 14:07:39;;;;;;;10.80;8.55;;;;;;;21.39;37.87;98766.20;4079614;86;21573;-86
2022/05/03 14:13:40;;;;;;;8.73;6.70;;;;;;;21.07;38.41;98772.89;4066496;86;21099;-86
2022/05/03 14:19:43;;;;;;;12.50;6.85;;;;;;;20.34;39.65;98774.71;4046634;86;21056;-86
2022/05/03 14:25:47;;;;;;;9.63;7.17;;;;;;;20.39;40.00;98765.03;4138904;84;22064;-86
2022/05/03 14:31:55;;;;;;;11.73;7.12;;;;;;;20.80;40.18;98763.45;4130713;84;22357;-86
2022/05/03 14:37:57;;;;;;;10.95;6.12;;;;;;;21.05;39.69;98761.42;4122441;84;21071;-86
2022/05/03 14:43:58;;;;;;;12.23;8.05;;;;;;;20.98;39.60;98768.64;4142146;84;21144;-87
2022/05/03 14:50:03;;;;;;;8.68;6.25;;;;;;;21.18;39.61;98770.52;4139641;84;21023;-87
2022/05/03 15:08:32;;;;;;;9.60;6.15;;;;;;;20.29;39.36;98782.81;4042729;86;21002;-86
2022/05/03 15:14:36;;;;;;;15.18;8.48;;;;;;;19.97;40.00;98789.30;4046484;86;21071;-86
2022/05/03 15:20:37;;;;;;;12.90;6.25;;;;;;;19.73;40.38;98792.22;4057698;86;21511;-85
2022/05/03 15:26:43;;;;;;;9.73;5.85;;;;;;;19.54;40.45;98790.38;4051077;86;21401;-87
2022/05/03 15:32:45;;;;;;;7.85;5.42;;;;;;;19.60;41.04;98788.02;3996884;88;21914;-86
2022/05/03 15:38:46;;;;;;;7.58;5.97;;;;;;;19.84;41.47;98788.52;3992006;88;22024;-86
2022/05/03 15:44:51;;;;;;;8.55;5.33;;;;;;;19.99;41.50;98786.27;3985351;88;21130;-86
2022/05/03 15:50:52;;;;;;;7.90;5.42;;;;;;;20.03;41.33;98781.37;3995581;88;21109;-86
2022/05/03 15:56:53;;;;;;;7.72;5.15;;;;;;;20.08;40.51;98771.10;3997303;86;21085;-87
2022/05/03 16:03:01;;;;;;;7.70;4.85;;;;;;;19.92;40.52;98778.13;3999416;88;21112;-86
2022/05/03 16:09:03;;;;;;;7.50;5.00;;;;;;;19.69;40.73;98773.47;3999551;88;21174;-85
2022/05/03 16:15:06;;;;;;;6.30;4.37;;;;;;;19.56;40.51;98788.71;4003394;88;21015;-86
2022/05/03 16:21:09;;;;;;;6.92;5.35;;;;;;;19.32;40.59;98781.08;4002132;88;21615;-86
2022/05/03 16:27:11;;;;;;;7.15;4.90;;;;;;;19.17;40.60;98782.03;4002440;88;21056;-86
2022/05/03 16:33:13;;;;;;;5.95;4.97;;;;;;;18.95;40.67;98790.73;3995959;88;21060;-87
2022/05/03 16:45:36;;;;;;;8.78;4.95;;;;;;;18.62;41.07;98791.99;3994678;88;21102;-86
2022/05/03 16:51:38;;;;;;;7.25;4.80;;;;;;;18.48;41.28;98797.25;3894813;86;9999540;-85
2022/05/03 16:57:39;;;;;;;11.18;5.65;;;;;;;18.37;41.53;98800.84;4027535;86;21622;-86
2022/05/03 17:03:41;;;;;;;10.85;5.30;;;;;;;18.27;41.55;98794.96;4142126;84;21039;-86
2022/05/03 17:09:44;;;;;;;8.20;6.10;;;;;;;18.17;41.85;98804.28;4145308;84;21023;-86
2022/05/03 17:15:45;;;;;;;14.35;6.62;;;;;;;18.03;42.12;98810.73;4139524;84;21037;-86
2022/05/03 17:21:47;;;;;;;12.73;7.50;;;;;;;17.90;42.39;98808.45;4144712;84;22065;-86
2022/05/03 17:27:48;;;;;;;11.97;7.53;;;;;;;17.78;42.91;98809.88;4149393;84;21012;-86
2022/05/03 17:33:50;;;;;;;11.12;6.60;;;;;;;17.69;43.36;98815.80;4143627;84;21010;-86
2022/05/03 17:39:52;;;;;;;9.78;6.65;;;;;;;17.47;43.42;98816.05;4150925;84;21073;-86
2022/05/03 17:45:55;;;;;;;14.30;6.33;;;;;;;17.20;44.02;98827.19;4154856;84;21038;-86
2022/05/03 17:58:16;;;;;;;9.70;5.50;;;;;;;16.80;45.67;98847.02;4153715;84;21569;-86
2022/05/03 18:04:19;;;;;;;10.82;7.15;;;;;;;16.64;45.31;98854.40;4148199;85;21070;-85
2022/05/03 18:10:20;;;;;;;10.20;6.35;;;;;;;16.57;45.38;98855.91;4133325;85;21010;-85
2022/05/03 18:16:22;;;;;;;7.70;5.47;;;;;;;16.52;45.49;98862.66;4134214;85;20999;-86
2022/05/03 18:22:23;;;;;;;7.22;5.92;;;;;;;16.46;45.66;98871.86;4137002;85;21007;-86
2022/05/03 18:28:25;;;;;;;7.95;5.70;;;;;;;16.36;46.16;98879.66;4142926;85;21997;-86
2022/05/03 18:34:26;;;;;;;6.42;5.53;;;;;;;16.22;46.62;98879.84;4057340;86;21065;-85
2022/05/03 18:40:28;;;;;;;9.68;5.70;;;;;;;16.04;47.06;98890.32;4051781;86;21026;-86
2022/05/03 18:46:30;;;;;;;6.80;5.62;;;;;;;15.89;47.57;98891.11;4056649;86;21126;-85
2022/05/03 18:52:32;;;;;;;7.30;5.05;;;;;;;15.75;48.11;98907.04;3998703;88;21464;-85
2022/05/03 18:58:33;;;;;;;8.43;5.78;;;;;;;15.62;48.96;98916.44;4015184;86;21170;-86
2022/05/03 19:04:34;;;;;;;12.13;6.67;;;;;;;15.46;49.22;98913.44;3990970;87;21975;-85
2022/05/03 19:10:37;;;;;;;10.85;6.65;;;;;;;15.33;49.82;98917.27;3984907;87;21023;-85
2022/05/03 19:16:39;;;;;;;38.30;27.62;;;;;;;15.29;51.09;98927.56;3971960;87;21119;-85
2022/05/03 19:22:40;;;;;;;37.10;24.25;;;;;;;15.16;51.28;98936.75;3930091;89;21039;-85
2022/05/03 19:35:05;;;;;;;17.15;10.18;;;;;;;14.92;52.80;98960.56;3972470;87;20988;-86
2022/05/03 19:41:07;;;;;;;20.32;10.40;;;;;;;14.85;53.61;98957.04;3991861;88;21038;-86
2022/05/03 19:47:08;;;;;;;12.13;8.83;;;;;;;14.85;54.88;98959.22;3914606;89;21072;-85
2022/05/03 19:53:14;;;;;;;18.42;11.53;;;;;;;14.78;54.02;98963.41;4051556;86;21003;-85
2022/05/03 19:59:16;;;;;;;18.05;11.50;;;;;;;14.77;54.32;98958.30;4095273;85;21067;-85
2022/05/03 20:05:19;;;;;;;16.07;11.50;;;;;;;14.76;54.52;98965.77;4135077;85;21035;-85
2022/05/03 20:11:20;;;;;;;18.95;11.93;;;;;;;14.75;55.10;98967.55;4134522;85;21011;-85
2022/05/03 20:17:22;;;;;;;16.73;12.43;;;;;;;14.65;55.61;98978.03;4050455;86;21620;-85
2022/05/03 20:23:23;;;;;;;18.07;12.88;;;;;;;14.58;55.89;98971.96;4054692;86;21008;-85
2022/05/03 20:29:24;;;;;;;16.70;11.83;;;;;;;14.44;56.32;98978.16;4064634;86;21166;-85
2022/05/03 20:35:26;;;;;;;16.90;11.57;;;;;;;14.39;56.70;98981.31;4038258;87;21012;-85
2022/05/03 20:41:28;;;;;;;16.50;12.95;;;;;;;14.18;57.33;98995.92;4022445;87;21203;-85
2022/05/03 20:53:49;;;;;;;16.17;12.75;;;;;;;13.88;58.09;98990.09;4032163;87;21399;-86
2022/05/03 20:59:50;;;;;;;17.85;14.15;;;;;;;13.65;58.13;98999.38;4020141;87;21395;-86
2022/05/03 21:05:52;;;;;;;17.37;12.30;;;;;;;13.32;59.26;99007.45;4047098;85;21092;-85
2022/05/03 21:11:54;;;;;;;19.87;13.80;;;;;;;13.27;60.20;99008.41;4046678;85;21507;-86
2022/05/03 21:17:56;;;;;;;20.95;14.20;;;;;;;13.27;60.62;99013.91;4045640;85;21187;-85
2022/05/03 21:23:57;;;;;;;23.95;15.65;;;;;;;13.22;61.14;99015.67;4047003;86;22200;-85
2022/05/03 21:29:58;;;;;;;21.30;15.45;;;;;;;13.03;61.17;99018.20;4139278;85;21594;-85
2022/05/03 21:36:01;;;;;;;23.40;16.70;;;;;;;12.95;61.78;99017.95;4142015;85;21517;-85
2022/05/03 21:42:03;;;;;;;24.55;16.93;;;;;;;12.84;62.06;99023.25;4141756;85;21000;-85
2022/05/03 21:48:05;;;;;;;22.75;15.53;;;;;;;12.72;62.65;99021.64;4136043;85;21070;-84
2022/05/03 21:54:06;;;;;;;21.20;14.87;;;;;;;12.58;62.68;99019.65;4125529;85;22020;-85
2022/05/03 22:00:11;;;;;;;25.20;17.50;;;;;;;12.49;63.77;99030.21;4146452;85;21627;-85
2022/05/03 22:06:12;;;;;;;25.12;17.27;;;;;;;12.42;64.16;99038.41;4140588;85;21071;-85
2022/05/03 22:12:14;;;;;;;29.92;17.95;;;;;;;12.36;64.34;99043.27;4140021;85;21654;-85
2022/05/03 22:18:15;;;;;;;23.12;16.48;;;;;;;12.26;64.75;99036.55;4139306;85;21043;-85
2022/05/03 22:24:17;;;;;;;20.27;15.28;;;;;;;12.23;65.39;99033.20;4134142;85;21055;-85
2022/05/03 22:30:19;;;;;;;25.75;16.80;;;;;;;12.26;66.03;99030.30;4138542;85;21610;-84
2022/05/03 22:36:21;;;;;;;24.30;16.93;;;;;;;12.19;65.94;99028.88;4132245;85;21091;-85
2022/05/03 22:42:24;;;;;;;25.35;18.62;;;;;;;12.07;66.57;99036.88;4142903;85;21007;-85
2022/05/03 22:48:25;;;;;;;28.30;18.70;;;;;;;11.96;66.74;99033.27;4134857;85;21073;-85
2022/05/03 22:54:26;;;;;;;22.62;15.95;;;;;;;11.91;67.25;99034.20;4133910;85;21055;-86
2022/05/03 23:00:28;;;;;;;26.48;17.65;;;;;;;11.71;67.36;99035.64;4151089;85;21071;-86
2022/05/03 23:06:29;;;;;;;24.32;17.77;;;;;;;11.64;67.89;99032.26;4140073;85;21110;-85
2022/05/03 23:12:31;;;;;;;28.77;20.65;;;;;;;11.43;68.30;99025.80;4154067;85;21042;-85
2022/05/03 23:18:32;;;;;;;27.48;19.95;;;;;;;11.18;68.04;99037.13;4136084;85;21059;-86
2022/05/03 23:24:34;;;;;;;29.95;19.92;;;;;;;10.94;69.40;99035.16;4158639;85;21464;-85
2022/05/03 23:30:36;;;;;;;25.90;18.98;;;;;;;10.88;69.48;99039.36;4143845;85;20986;-85
2022/05/03 23:36:39;;;;;;;29.50;21.00;;;;;;;10.89;70.29;99034.69;4153033;85;21339;-85
2022/05/03 23:42:41;;;;;;;26.95;18.17;;;;;;;10.67;70.27;99039.72;4141792;85;21094;-85
2022/05/03 23:48:42;;;;;;;24.15;16.75;;;;;;;10.55;71.32;99035.88;4160971;85;21452;-84
2022/05/03 23:54:43;;;;;;;24.80;18.40;;;;;;;10.66;71.79;99037.59;4149188;85;21024;-85
